createdAt,value
2023-05-13T00:00:56.999Z,92.87
2023-05-13T00:01:56.904Z,93.07
2023-05-13T00:02:56.887Z,93.43
2023-05-13T00:03:56.953Z,93.32
2023-05-13T00:04:56.815Z,92.30
2023-05-13T00:05:56.898Z,91.18
2023-05-13T00:06:56.850Z,90.98
2023-05-13T00:07:56.840Z,90.53
2023-05-13T00:08:56.813Z,90.73
2023-05-13T00:09:56.778Z,91.14
2023-05-13T00:10:56.782Z,90.53
2023-05-13T00:11:56.815Z,89.40
2023-05-13T00:12:56.777Z,90.42
2023-05-13T00:13:56.909Z,89.51
2023-05-13T00:14:56.759Z,90.08
2023-05-13T00:15:56.790Z,90.32
2023-05-13T00:16:56.773Z,89.36
2023-05-13T00:17:56.786Z,88.45
2023-05-13T00:18:56.716Z,88.14
2023-05-13T00:19:56.701Z,89.16
2023-05-13T00:20:56.698Z,88.65
2023-05-13T00:21:56.695Z,88.65
2023-05-13T00:22:56.651Z,88.45
2023-05-13T00:23:56.657Z,87.94
2023-05-13T00:24:56.619Z,86.77
2023-05-13T00:25:56.652Z,87.79
2023-05-13T00:26:56.600Z,89.22
2023-05-13T00:27:56.677Z,88.61
2023-05-13T00:28:56.581Z,87.38
2023-05-13T00:29:56.617Z,87.79
2023-05-13T00:30:56.573Z,87.90
2023-05-13T00:31:56.682Z,88.51
2023-05-13T00:32:56.665Z,88.14
2023-05-13T00:33:56.561Z,87.53
2023-05-13T00:34:56.523Z,87.43
2023-05-13T00:35:56.621Z,87.32
2023-05-13T00:36:56.499Z,88.55
2023-05-13T00:37:56.495Z,88.04
2023-05-13T00:38:56.523Z,88.55
2023-05-13T00:39:56.539Z,88.55
2023-05-13T00:40:56.496Z,88.55
2023-05-13T00:41:56.446Z,89.36
2023-05-13T00:42:56.454Z,89.77
2023-05-13T00:43:56.426Z,89.36
2023-05-13T00:44:56.425Z,89.20
2023-05-13T00:45:56.441Z,89.51
2023-05-13T00:46:56.405Z,89.51
2023-05-13T00:47:56.448Z,89.61
2023-05-13T00:48:56.366Z,90.12
2023-05-13T00:49:56.388Z,90.83
2023-05-13T00:50:56.392Z,91.03
2023-05-13T00:51:56.361Z,91.39
2023-05-13T00:52:56.419Z,92.10
2023-05-13T00:53:56.348Z,92.30
2023-05-13T00:54:56.317Z,92.61
2023-05-13T00:55:56.319Z,92.81
2023-05-13T00:56:56.290Z,93.22
2023-05-13T00:57:56.300Z,93.12
2023-05-13T00:58:56.314Z,93.37
2023-05-13T00:59:56.276Z,93.37
2023-05-13T01:00:56.275Z,93.16
2023-05-13T01:01:56.276Z,93.06
2023-05-13T01:02:56.374Z,93.26
2023-05-13T01:03:56.249Z,93.06
2023-05-13T01:04:56.202Z,93.16
2023-05-13T01:05:56.290Z,92.55
2023-05-13T01:06:56.234Z,91.53
2023-05-13T01:07:56.180Z,91.53
2023-05-13T01:08:56.165Z,91.74
2023-05-13T01:09:56.157Z,91.33
2023-05-13T01:10:56.150Z,90.92
2023-05-13T01:11:56.175Z,90.71
2023-05-13T01:12:56.131Z,90.71
2023-05-13T01:13:56.117Z,91.02
2023-05-13T01:14:56.138Z,90.10
2023-05-13T01:15:56.119Z,89.18
2023-05-13T01:16:56.148Z,89.55
2023-05-13T01:17:56.139Z,88.43
2023-05-13T01:18:56.091Z,88.22
2023-05-13T01:19:56.063Z,88.53
2023-05-13T01:20:56.033Z,88.43
2023-05-13T01:21:56.059Z,88.32
2023-05-13T01:22:56.023Z,88.32
2023-05-13T01:23:56.216Z,88.22
2023-05-13T01:24:56.035Z,88.32
2023-05-13T01:25:56.037Z,87.71
2023-05-13T01:26:55.993Z,87.92
2023-05-13T01:27:56.004Z,88.63
2023-05-13T01:28:56.003Z,89.25
2023-05-13T01:29:55.940Z,89.34
2023-05-13T01:30:55.968Z,89.86
2023-05-13T01:31:55.948Z,90.06
2023-05-13T01:32:55.973Z,89.96
2023-05-13T01:33:55.915Z,90.10
2023-05-13T01:34:55.908Z,90.20
2023-05-13T01:35:55.900Z,90.31
2023-05-13T01:36:55.872Z,90.71
2023-05-13T01:37:55.864Z,90.61
2023-05-13T01:38:55.868Z,90.81
2023-05-13T01:39:55.878Z,91.02
2023-05-13T01:40:55.843Z,91.47
2023-05-13T01:41:55.878Z,91.78
2023-05-13T01:42:55.961Z,92.08
2023-05-13T01:43:55.826Z,92.29
2023-05-13T01:44:55.794Z,92.43
2023-05-13T01:45:55.820Z,92.64
2023-05-13T01:46:55.875Z,92.74
2023-05-13T01:47:55.802Z,92.54
2023-05-13T01:48:55.747Z,92.23
2023-05-13T01:49:55.766Z,92.47
2023-05-13T01:50:55.727Z,92.17
2023-05-13T01:51:55.741Z,92.07
2023-05-13T01:52:55.748Z,92.07
2023-05-13T01:53:55.720Z,92.27
2023-05-13T01:54:55.713Z,92.33
2023-05-13T01:55:55.765Z,92.58
2023-05-13T01:56:55.663Z,92.54
2023-05-13T01:57:55.669Z,92.47
2023-05-13T01:58:55.666Z,92.47
2023-05-13T01:59:55.653Z,92.37
2023-05-13T02:00:55.696Z,92.47
2023-05-13T02:01:55.687Z,92.68
2023-05-13T02:02:55.692Z,92.68
2023-05-13T02:03:55.626Z,92.58
2023-05-13T02:04:55.676Z,92.88
2023-05-13T02:05:55.615Z,92.88
2023-05-13T02:06:55.560Z,92.68
2023-05-13T02:07:55.554Z,92.58
2023-05-13T02:08:55.547Z,92.58
2023-05-13T02:09:55.550Z,92.47
2023-05-13T02:10:55.550Z,92.58
2023-05-13T02:11:55.536Z,92.58
2023-05-13T02:12:55.489Z,92.47
2023-05-13T02:13:55.521Z,92.47
2023-05-13T02:14:55.488Z,92.27
2023-05-13T02:15:55.508Z,92.27
2023-05-13T02:16:55.608Z,92.27
2023-05-13T02:17:55.514Z,92.17
2023-05-13T02:18:55.498Z,91.35
2023-05-13T02:19:55.438Z,91.46
2023-05-13T02:20:55.424Z,91.76
2023-05-13T02:21:55.435Z,91.96
2023-05-13T02:22:55.421Z,92.07
2023-05-13T02:23:55.416Z,92.07
2023-05-13T02:24:55.388Z,92.07
2023-05-13T02:25:55.403Z,92.07
2023-05-13T02:26:55.365Z,91.96
2023-05-13T02:27:55.374Z,92.21
2023-05-13T02:28:55.332Z,92.52
2023-05-13T02:29:55.353Z,92.83
2023-05-13T02:30:55.371Z,92.83
2023-05-13T02:31:55.341Z,92.93
2023-05-13T02:32:55.338Z,93.24
2023-05-13T02:33:55.286Z,93.33
2023-05-13T02:34:55.284Z,93.33
2023-05-13T02:35:55.289Z,93.03
2023-05-13T02:36:55.248Z,92.83
2023-05-13T02:37:55.244Z,92.62
2023-05-13T02:38:55.227Z,92.52
2023-05-13T02:39:55.250Z,92.62
2023-05-13T02:40:55.241Z,92.32
2023-05-13T02:41:55.208Z,92.42
2023-05-13T02:42:55.234Z,92.32
2023-05-13T02:43:55.214Z,92.11
2023-05-13T02:44:55.190Z,92.01
2023-05-13T02:45:55.267Z,92.01
2023-05-13T02:46:55.171Z,92.21
2023-05-13T02:47:55.182Z,92.32
2023-05-13T02:48:55.153Z,92.21
2023-05-13T02:49:55.166Z,92.01
2023-05-13T02:50:55.110Z,92.01
2023-05-13T02:51:55.114Z,91.91
2023-05-13T02:52:55.111Z,91.91
2023-05-13T02:53:55.105Z,92.32
2023-05-13T02:54:55.097Z,92.52
2023-05-13T02:55:55.044Z,92.93
2023-05-13T02:56:55.055Z,92.93
2023-05-13T02:57:55.087Z,93.13
2023-05-13T02:58:55.019Z,93.28
2023-05-13T02:59:54.982Z,93.79
2023-05-13T03:00:54.999Z,93.89
2023-05-13T03:01:54.962Z,93.79
2023-05-13T03:02:55.164Z,93.89
2023-05-13T03:03:54.979Z,94.10
2023-05-13T03:04:55.464Z,94.30
2023-05-13T03:05:54.917Z,94.40
2023-05-13T03:06:54.910Z,94.60
2023-05-13T03:07:54.966Z,94.30
2023-05-13T03:08:54.890Z,93.79
2023-05-13T03:09:54.866Z,93.69
2023-05-13T03:10:54.919Z,93.59
2023-05-13T03:11:54.841Z,93.48
2023-05-13T03:12:54.869Z,93.38
2023-05-13T03:13:54.848Z,93.48
2023-05-13T03:14:54.832Z,93.99
2023-05-13T03:15:54.926Z,94.65
2023-05-13T03:16:54.795Z,94.85
2023-05-13T03:17:54.830Z,95.26
2023-05-13T03:18:54.825Z,95.47
2023-05-13T03:19:54.741Z,95.47
2023-05-13T03:20:54.757Z,95.37
2023-05-13T03:21:54.727Z,95.47
2023-05-13T03:22:54.762Z,95.57
2023-05-13T03:23:54.748Z,95.57
2023-05-13T03:24:54.706Z,95.51
2023-05-13T03:25:54.691Z,95.51
2023-05-13T03:26:54.687Z,95.41
2023-05-13T03:27:54.673Z,95.51
2023-05-13T03:28:54.731Z,95.41
2023-05-13T03:29:54.656Z,95.41
2023-05-13T03:30:54.664Z,95.31
2023-05-13T03:31:54.671Z,95.31
2023-05-13T03:32:54.729Z,95.31
2023-05-13T03:33:54.638Z,95.51
2023-05-13T03:34:54.622Z,95.62
2023-05-13T03:35:54.590Z,95.72
2023-05-13T03:36:54.606Z,95.97
2023-05-13T03:37:54.598Z,96.07
2023-05-13T03:38:54.611Z,96.07
2023-05-13T03:39:54.575Z,96.17
2023-05-13T03:40:54.575Z,96.17
2023-05-13T03:41:54.589Z,96.17
2023-05-13T03:42:54.516Z,95.97
2023-05-13T03:43:54.559Z,95.97
2023-05-13T03:44:54.524Z,95.97
2023-05-13T03:45:54.510Z,95.87
2023-05-13T03:46:54.632Z,95.87
2023-05-13T03:47:54.619Z,96.07
2023-05-13T03:48:54.463Z,95.97
2023-05-13T03:49:54.487Z,95.87
2023-05-13T03:50:54.459Z,95.87
2023-05-13T03:51:54.450Z,95.87
2023-05-13T03:52:54.425Z,95.87
2023-05-13T03:53:54.460Z,95.87
2023-05-13T03:54:54.404Z,96.07
2023-05-13T03:55:54.432Z,96.07
2023-05-13T03:56:54.413Z,95.97
2023-05-13T03:57:54.371Z,95.87
2023-05-13T03:58:54.364Z,95.76
2023-05-13T03:59:54.373Z,95.76
2023-05-13T04:00:54.352Z,95.76
2023-05-13T04:01:54.363Z,95.66
2023-05-13T04:02:54.363Z,95.46
2023-05-13T04:03:54.306Z,95.41
2023-05-13T04:04:54.357Z,95.51
2023-05-13T04:05:54.284Z,95.41
2023-05-13T04:06:54.319Z,95.10
2023-05-13T04:07:54.280Z,95.21
2023-05-13T04:08:54.277Z,95.31
2023-05-13T04:09:54.249Z,95.10
2023-05-13T04:10:54.236Z,94.85
2023-05-13T04:11:54.228Z,94.80
2023-05-13T04:12:54.238Z,94.75
2023-05-13T04:13:54.210Z,94.75
2023-05-13T04:14:54.236Z,95.00
2023-05-13T04:15:54.189Z,95.10
2023-05-13T04:16:54.250Z,95.21
2023-05-13T04:17:54.221Z,95.41
2023-05-13T04:18:54.215Z,95.51
2023-05-13T04:19:54.173Z,95.62
2023-05-13T04:20:54.140Z,95.62
2023-05-13T04:21:54.138Z,95.92
2023-05-13T04:22:54.133Z,96.03
2023-05-13T04:23:54.086Z,96.03
2023-05-13T04:24:54.119Z,96.13
2023-05-13T04:25:54.104Z,96.23
2023-05-13T04:26:54.126Z,96.33
2023-05-13T04:27:54.072Z,96.33
2023-05-13T04:28:54.068Z,96.23
2023-05-13T04:29:54.080Z,96.23
2023-05-13T04:30:54.057Z,96.23
2023-05-13T04:31:54.058Z,96.33
2023-05-13T04:32:54.051Z,96.13
2023-05-13T04:33:54.052Z,96.13
2023-05-13T04:34:54.042Z,96.03
2023-05-13T04:35:54.009Z,96.03
2023-05-13T04:36:54.008Z,95.92
2023-05-13T04:37:54.894Z,95.88
2023-05-13T04:38:54.406Z,95.88
2023-05-13T04:39:53.968Z,95.78
2023-05-13T04:40:53.979Z,95.78
2023-05-13T04:41:53.933Z,95.78
2023-05-13T04:42:53.916Z,95.67
2023-05-13T04:43:53.941Z,95.88
2023-05-13T04:44:53.901Z,96.19
2023-05-13T04:45:53.909Z,96.39
2023-05-13T04:46:53.856Z,96.59
2023-05-13T04:47:55.521Z,96.80
2023-05-13T04:48:53.876Z,97.00
2023-05-13T04:49:53.820Z,97.21
2023-05-13T04:50:53.903Z,97.41
2023-05-13T04:51:53.828Z,97.31
2023-05-13T04:52:53.844Z,97.21
2023-05-13T04:53:53.817Z,97.31
2023-05-13T04:54:53.791Z,97.41
2023-05-13T04:55:53.794Z,97.06
2023-05-13T04:56:53.824Z,96.75
2023-05-13T04:57:53.748Z,96.66
2023-05-13T04:58:53.753Z,96.66
2023-05-13T04:59:53.742Z,96.75
2023-05-13T05:00:53.733Z,96.55
2023-05-13T05:01:53.742Z,96.45
2023-05-13T05:02:53.753Z,96.34
2023-05-13T05:03:53.746Z,96.45
2023-05-13T05:04:53.685Z,96.34
2023-05-13T05:05:53.726Z,96.30
2023-05-13T05:06:53.669Z,96.34
2023-05-13T05:07:53.660Z,96.51
2023-05-13T05:08:53.679Z,97.12
2023-05-13T05:09:53.614Z,97.12
2023-05-13T05:10:53.651Z,97.22
2023-05-13T05:11:53.639Z,97.22
2023-05-13T05:12:53.603Z,97.22
2023-05-13T05:13:53.589Z,97.22
2023-05-13T05:14:53.598Z,97.42
2023-05-13T05:15:53.641Z,97.42
2023-05-13T05:16:53.602Z,97.63
2023-05-13T05:17:53.614Z,97.63
2023-05-13T05:18:53.617Z,97.94
2023-05-13T05:19:53.560Z,97.94
2023-05-13T05:20:53.561Z,97.99
2023-05-13T05:21:53.523Z,97.89
2023-05-13T05:22:53.498Z,97.28
2023-05-13T05:23:53.512Z,96.46
2023-05-13T05:24:53.911Z,96.26
2023-05-13T05:26:04.121Z,96.26
2023-05-13T05:26:53.511Z,96.15
2023-05-13T05:27:53.445Z,96.15
2023-05-13T05:28:53.450Z,95.64
2023-05-13T05:29:53.540Z,94.78
2023-05-13T05:30:53.424Z,94.68
2023-05-13T05:31:53.478Z,94.07
2023-05-13T05:32:53.503Z,94.07
2023-05-13T05:33:53.400Z,93.55
2023-05-13T05:34:53.399Z,92.54
2023-05-13T05:35:53.372Z,92.49
2023-05-13T05:36:53.413Z,92.39
2023-05-13T05:37:53.328Z,92.39
2023-05-13T05:38:53.412Z,91.53
2023-05-13T05:39:53.341Z,92.14
2023-05-13T05:40:53.325Z,92.55
2023-05-13T05:41:53.295Z,92.65
2023-05-13T05:42:53.308Z,92.65
2023-05-13T05:43:53.276Z,92.41
2023-05-13T05:44:53.340Z,92.50
2023-05-13T05:45:53.257Z,92.61
2023-05-13T05:46:53.276Z,91.69
2023-05-13T05:47:53.270Z,91.28
2023-05-13T05:48:53.221Z,91.08
2023-05-13T05:49:53.218Z,89.86
2023-05-13T05:50:53.225Z,90.16
2023-05-13T05:51:53.222Z,89.81
2023-05-13T05:52:53.191Z,89.71
2023-05-13T05:53:53.204Z,89.61
2023-05-13T05:54:53.189Z,90.22
2023-05-13T05:55:53.335Z,88.79
2023-05-13T05:56:53.172Z,87.84
2023-05-13T05:57:53.228Z,87.32
2023-05-13T05:58:53.149Z,86.51
2023-05-13T05:59:53.172Z,87.53
2023-05-13T06:00:53.092Z,88.04
2023-05-13T06:01:53.091Z,88.20
2023-05-13T06:02:53.143Z,88.20
2023-05-13T06:03:54.859Z,87.69
2023-05-13T06:04:53.094Z,87.90
2023-05-13T06:05:53.108Z,87.49
2023-05-13T06:06:54.440Z,87.35
2023-05-13T06:07:53.029Z,87.35
2023-05-13T06:08:53.038Z,87.75
2023-05-13T06:09:53.030Z,88.06
2023-05-13T06:10:53.114Z,87.45
2023-05-13T06:11:53.043Z,87.65
2023-05-13T06:12:53.028Z,85.78
2023-05-13T06:13:52.959Z,86.19
2023-05-13T06:14:52.993Z,86.69
2023-05-13T06:15:53.083Z,87.51
2023-05-13T06:16:53.590Z,86.25
2023-05-13T06:17:53.030Z,85.84
2023-05-13T06:18:53.023Z,86.65
2023-05-13T06:19:52.904Z,85.64
2023-05-13T06:20:52.930Z,85.03
2023-05-13T06:21:52.919Z,85.09
2023-05-13T06:22:52.883Z,84.99
2023-05-13T06:23:52.858Z,86.00
2023-05-13T06:24:52.858Z,85.39
2023-05-13T06:25:52.910Z,85.29
2023-05-13T06:26:53.373Z,83.76
2023-05-13T06:27:52.808Z,84.23
2023-05-13T06:28:52.839Z,85.35
2023-05-13T06:29:52.821Z,85.25
2023-05-13T06:30:52.839Z,85.11
2023-05-13T06:31:52.770Z,85.21
2023-05-13T06:33:14.162Z,83.99
2023-05-13T06:33:52.777Z,83.08
2023-05-13T06:34:54.622Z,82.37
2023-05-13T06:35:52.769Z,81.41
2023-05-13T06:36:52.902Z,82.12
2023-05-13T06:37:52.973Z,81.82
2023-05-13T06:38:52.875Z,82.33
2023-05-13T06:39:52.739Z,81.99
2023-05-13T06:40:52.787Z,79.04
2023-05-13T06:41:52.746Z,80.26
2023-05-13T06:42:52.664Z,78.74
2023-05-13T06:43:52.693Z,78.80
2023-05-13T06:44:52.680Z,79.92
2023-05-13T06:45:52.652Z,80.02
2023-05-13T06:46:52.651Z,79.78
2023-05-13T06:47:52.771Z,79.27
2023-05-13T06:48:52.618Z,79.13
2023-05-13T06:49:52.644Z,78.53
2023-05-13T06:50:52.613Z,78.12
2023-05-13T06:51:52.629Z,76.67
2023-05-13T06:52:53.861Z,76.06
2023-05-13T06:53:52.679Z,77.07
2023-05-13T06:54:52.646Z,76.93
2023-05-13T06:55:52.602Z,75.42
2023-05-13T06:56:52.545Z,77.34
2023-05-13T06:57:52.554Z,77.40
2023-05-13T06:58:52.631Z,77.91
2023-05-13T06:59:52.515Z,75.34
2023-05-13T07:00:52.595Z,72.92
2023-05-13T07:01:52.481Z,74.23
2023-05-13T07:02:52.572Z,73.90
2023-05-13T07:03:52.537Z,72.99
2023-05-13T07:04:52.516Z,75.01
2023-05-13T07:05:52.492Z,73.59
2023-05-13T07:06:52.667Z,75.61
2023-05-13T07:07:52.409Z,75.37
2023-05-13T07:08:52.429Z,74.57
2023-05-13T07:09:52.432Z,75.17
2023-05-13T07:10:53.225Z,75.54
2023-05-13T07:11:52.430Z,76.65
2023-05-13T07:12:52.369Z,72.91
2023-05-13T07:13:52.425Z,70.49
2023-05-13T07:14:52.432Z,71.50
2023-05-13T07:15:52.330Z,75.51
2023-05-13T07:16:52.342Z,76.07
2023-05-13T07:17:52.464Z,72.85
2023-05-13T07:18:52.340Z,74.16
2023-05-13T07:19:52.412Z,71.84
2023-05-13T07:20:52.324Z,71.33
2023-05-13T07:21:52.261Z,69.79
2023-05-13T07:22:52.265Z,70.49
2023-05-13T07:23:52.305Z,70.59
2023-05-13T07:24:52.294Z,71.50
2023-05-13T07:25:52.222Z,68.07
2023-05-13T07:26:52.260Z,69.18
2023-05-13T07:27:52.201Z,70.97
2023-05-13T07:28:52.184Z,69.55
2023-05-13T07:29:52.220Z,71.17
2023-05-13T07:30:52.255Z,69.01
2023-05-13T07:31:52.155Z,67.20
2023-05-13T07:32:53.825Z,65.39
2023-05-13T07:33:52.161Z,67.40
2023-05-13T07:34:52.165Z,67.50
2023-05-13T07:35:52.154Z,65.69
2023-05-13T07:36:52.215Z,67.40
2023-05-13T07:37:52.090Z,67.40
2023-05-13T07:38:52.119Z,67.17
2023-05-13T07:39:52.191Z,67.34
2023-05-13T07:40:52.063Z,63.21
2023-05-13T07:41:52.047Z,63.21
2023-05-13T07:42:52.098Z,64.59
2023-05-13T07:43:52.034Z,64.06
2023-05-13T07:44:52.076Z,63.02
2023-05-13T07:45:52.057Z,63.73
2023-05-13T07:46:52.018Z,66.41
2023-05-13T07:47:52.017Z,66.20
2023-05-13T07:48:52.003Z,64.37
2023-05-13T07:49:52.003Z,62.16
2023-05-13T07:50:51.965Z,61.79
2023-05-13T07:51:51.952Z,65.00
2023-05-13T07:52:51.969Z,62.39
2023-05-13T07:53:51.923Z,60.88
2023-05-13T07:54:52.206Z,60.58
2023-05-13T07:55:51.976Z,61.05
2023-05-13T07:56:51.963Z,60.78
2023-05-13T07:57:51.900Z,62.56
2023-05-13T07:58:51.909Z,60.55
2023-05-13T07:59:52.001Z,63.17
2023-05-13T08:00:51.974Z,62.06
2023-05-13T08:01:51.836Z,64.24
2023-05-13T08:02:51.969Z,60.55
2023-05-13T08:03:51.984Z,64.04
2023-05-13T08:04:51.921Z,60.93
2023-05-13T08:05:51.793Z,63.03
2023-05-13T08:06:51.816Z,60.93
2023-05-13T08:07:51.807Z,61.52
2023-05-13T08:08:51.851Z,61.63
2023-05-13T08:09:51.764Z,59.92
2023-05-13T08:10:51.784Z,62.83
2023-05-13T08:11:51.777Z,60.69
2023-05-13T08:12:51.815Z,63.87
2023-05-13T08:13:51.738Z,61.67
2023-05-13T08:14:51.771Z,58.06
2023-05-13T08:15:51.870Z,58.49
2023-05-13T08:16:51.830Z,59.69
2023-05-13T08:17:51.770Z,58.79
2023-05-13T08:18:51.757Z,61.72
2023-05-13T08:19:51.705Z,62.50
2023-05-13T08:20:51.680Z,60.60
2023-05-13T08:21:51.696Z,59.82
2023-05-13T08:22:51.741Z,58.18
2023-05-13T08:23:51.783Z,59.46
2023-05-13T08:24:51.769Z,57.96
2023-05-13T08:25:51.624Z,60.86
2023-05-13T08:26:51.657Z,57.35
2023-05-13T08:27:51.644Z,59.66
2023-05-13T08:28:54.442Z,57.86
2023-05-13T08:29:51.881Z,58.56
2023-05-13T08:30:51.661Z,58.29
2023-05-13T08:31:52.146Z,59.59
2023-05-13T08:32:51.938Z,59.89
2023-05-13T08:33:51.549Z,61.40
2023-05-13T08:34:51.536Z,62.50
2023-05-13T08:35:51.588Z,58.99
2023-05-13T08:36:51.605Z,60.29
2023-05-13T08:37:51.587Z,60.89
2023-05-13T08:38:51.481Z,61.57
2023-05-13T08:39:51.623Z,62.17
2023-05-13T08:40:51.500Z,61.57
2023-05-13T08:41:51.502Z,61.34
2023-05-13T08:42:51.472Z,61.44
2023-05-13T08:43:51.443Z,61.34
2023-05-13T08:44:51.433Z,60.74
2023-05-13T08:45:51.531Z,61.24
2023-05-13T08:46:51.450Z,56.43
2023-05-13T08:47:51.512Z,61.87
2023-05-13T08:48:51.512Z,61.94
2023-05-13T08:49:51.442Z,58.76
2023-05-13T08:50:51.357Z,58.76
2023-05-13T08:51:52.337Z,56.85
2023-05-13T08:52:51.464Z,54.45
2023-05-13T08:53:51.341Z,57.53
2023-05-13T08:54:51.382Z,56.33
2023-05-13T08:55:51.288Z,55.63
2023-05-13T08:56:51.334Z,57.13
2023-05-13T08:57:51.310Z,56.93
2023-05-13T08:58:51.275Z,55.82
2023-05-13T08:59:51.246Z,59.13
2023-05-13T09:00:51.418Z,59.13
2023-05-13T09:01:51.252Z,56.35
2023-05-13T09:02:51.302Z,56.43
2023-05-13T09:03:51.246Z,58.63
2023-05-13T09:04:51.213Z,59.53
2023-05-13T09:05:51.258Z,59.53
2023-05-13T09:06:51.211Z,59.94
2023-05-13T09:07:51.317Z,58.50
2023-05-13T09:08:51.221Z,58.91
2023-05-13T09:09:51.142Z,57.90
2023-05-13T09:10:51.222Z,57.60
2023-05-13T09:11:51.522Z,60.21
2023-05-13T09:12:51.140Z,58.53
2023-05-13T09:13:51.153Z,55.52
2023-05-13T09:14:51.104Z,55.43
2023-05-13T09:15:51.573Z,57.93
2023-05-13T09:16:51.136Z,58.63
2023-05-13T09:17:51.109Z,62.44
2023-05-13T09:18:51.187Z,60.71
2023-05-13T09:19:51.130Z,56.52
2023-05-13T09:20:52.493Z,59.13
2023-05-13T09:21:51.579Z,56.73
2023-05-13T09:22:51.030Z,57.03
2023-05-13T09:23:51.032Z,56.90
2023-05-13T09:24:51.043Z,58.30
2023-05-13T09:25:50.999Z,56.70
2023-05-13T09:26:51.003Z,63.01
2023-05-13T09:27:51.058Z,59.28
2023-05-13T09:28:50.974Z,57.17
2023-05-13T09:29:50.985Z,55.77
2023-05-13T09:30:51.070Z,58.85
2023-05-13T09:31:51.115Z,61.85
2023-05-13T09:32:51.001Z,60.35
2023-05-13T09:33:50.915Z,55.65
2023-05-13T09:34:51.639Z,57.95
2023-05-13T09:35:50.925Z,55.55
2023-05-13T09:36:51.334Z,56.74
2023-05-13T09:37:50.864Z,58.15
2023-05-13T09:38:50.880Z,55.74
2023-05-13T09:39:50.878Z,53.34
2023-05-13T09:40:50.861Z,58.05
2023-05-13T09:41:50.908Z,59.45
2023-05-13T09:42:50.868Z,60.05
2023-05-13T09:43:50.846Z,53.85
2023-05-13T09:44:50.808Z,54.55
2023-05-13T09:45:50.772Z,56.05
2023-05-13T09:46:50.812Z,59.75
2023-05-13T09:47:50.840Z,60.85
2023-05-13T09:48:50.832Z,60.45
2023-05-13T09:49:50.776Z,60.25
2023-05-13T09:50:50.797Z,55.85
2023-05-13T09:51:50.772Z,59.22
2023-05-13T09:52:50.752Z,53.32
2023-05-13T09:53:50.740Z,53.49
2023-05-13T09:54:50.749Z,55.66
2023-05-13T09:55:50.709Z,55.57
2023-05-13T09:56:50.705Z,59.36
2023-05-13T09:57:50.735Z,59.17
2023-05-13T09:58:50.716Z,57.07
2023-05-13T09:59:50.832Z,59.17
2023-05-13T10:00:50.748Z,57.37
2023-05-13T10:01:50.746Z,60.06
2023-05-13T10:02:50.790Z,55.97
2023-05-13T10:03:50.718Z,55.17
2023-05-13T10:04:50.618Z,55.57
2023-05-13T10:05:50.645Z,54.86
2023-05-13T10:06:50.654Z,56.37
2023-05-13T10:07:51.919Z,53.77
2023-05-13T10:08:50.575Z,55.99
2023-05-13T10:09:50.555Z,56.39
2023-05-13T10:10:50.640Z,55.40
2023-05-13T10:11:50.565Z,51.77
2023-05-13T10:12:50.569Z,53.17
2023-05-13T10:13:50.541Z,51.17
2023-05-13T10:14:50.482Z,52.17
2023-05-13T10:15:50.526Z,56.87
2023-05-13T10:16:50.561Z,52.27
2023-05-13T10:17:50.465Z,53.17
2023-05-13T10:18:50.502Z,52.89
2023-05-13T10:19:50.536Z,52.39
2023-05-13T10:20:50.439Z,50.20
2023-05-13T10:21:50.433Z,50.99
2023-05-13T10:22:50.405Z,52.80
2023-05-13T10:23:50.569Z,53.89
2023-05-13T10:24:50.445Z,54.47
2023-05-13T10:25:50.390Z,55.27
2023-05-13T10:26:50.379Z,55.34
2023-05-13T10:27:50.345Z,55.84
2023-05-13T10:28:50.411Z,54.14
2023-05-13T10:29:50.370Z,50.77
2023-05-13T10:30:50.334Z,54.27
2023-05-13T10:31:50.360Z,52.77
2023-05-13T10:32:50.372Z,51.77
2023-05-13T10:33:50.332Z,50.09
2023-05-13T10:34:50.313Z,52.80
2023-05-13T10:35:50.263Z,51.39
2023-05-13T10:36:50.352Z,51.29
2023-05-13T10:37:50.260Z,53.89
2023-05-13T10:38:50.372Z,51.29
2023-05-13T10:39:50.312Z,53.97
2023-05-13T10:40:50.266Z,50.97
2023-05-13T10:41:51.053Z,51.15
2023-05-13T10:42:50.373Z,52.44
2023-05-13T10:43:50.192Z,49.92
2023-05-13T10:44:50.186Z,52.12
2023-05-13T10:45:50.227Z,51.89
2023-05-13T10:46:50.281Z,50.52
2023-05-13T10:47:50.323Z,51.92
2023-05-13T10:48:50.398Z,55.09
2023-05-13T10:49:50.142Z,52.12
2023-05-13T10:50:50.152Z,53.92
2023-05-13T10:51:50.187Z,57.31
2023-05-13T10:52:50.139Z,52.12
2023-05-13T10:53:50.107Z,52.64
2023-05-13T10:54:50.118Z,57.54
2023-05-13T10:55:50.089Z,48.45
2023-05-13T10:56:50.065Z,54.44
2023-05-13T10:57:50.058Z,52.64
2023-05-13T10:58:50.105Z,49.55
2023-05-13T10:59:50.021Z,52.74
2023-05-13T11:00:50.037Z,51.34
2023-05-13T11:01:50.069Z,49.95
2023-05-13T11:02:50.087Z,50.84
2023-05-13T11:03:50.108Z,49.95
2023-05-13T11:04:49.991Z,51.12
2023-05-13T11:05:49.975Z,51.02
2023-05-13T11:06:50.000Z,51.29
2023-05-13T11:07:49.945Z,54.49
2023-05-13T11:08:49.978Z,52.09
2023-05-13T11:09:49.957Z,52.00
2023-05-13T11:10:50.130Z,48.43
2023-05-13T11:11:49.884Z,48.72
2023-05-13T11:12:49.903Z,53.52
2023-05-13T11:13:49.906Z,52.62
2023-05-13T11:14:49.927Z,49.80
2023-05-13T11:15:49.924Z,47.71
2023-05-13T11:16:49.854Z,52.39
2023-05-13T11:17:49.892Z,51.59
2023-05-13T11:18:49.946Z,53.19
2023-05-13T11:19:50.080Z,48.20
2023-05-13T11:20:52.800Z,48.10
2023-05-13T11:21:49.858Z,48.63
2023-05-13T11:22:49.793Z,50.52
2023-05-13T11:23:49.833Z,53.09
2023-05-13T11:24:49.790Z,52.00
2023-05-13T11:25:49.772Z,50.60
2023-05-13T11:26:49.849Z,52.69
2023-05-13T11:27:49.746Z,50.27
2023-05-13T11:28:49.739Z,48.58
2023-05-13T11:29:49.869Z,49.38
2023-05-13T11:30:49.836Z,48.78
2023-05-13T11:31:49.777Z,46.78
2023-05-13T11:32:49.733Z,47.78
2023-05-13T11:33:49.721Z,47.38
2023-05-13T11:34:49.687Z,50.27
2023-05-13T11:35:49.689Z,47.58
2023-05-13T11:36:49.792Z,51.67
2023-05-13T11:37:49.681Z,48.95
2023-05-13T11:38:49.654Z,47.88
2023-05-13T11:39:49.680Z,50.47
2023-05-13T11:40:49.644Z,47.28
2023-05-13T11:41:49.621Z,47.48
2023-05-13T11:42:49.583Z,52.55
2023-05-13T11:43:49.614Z,47.66
2023-05-13T11:44:49.655Z,49.85
2023-05-13T11:45:49.649Z,51.65
2023-05-13T11:46:49.593Z,49.13
2023-05-13T11:47:49.545Z,54.11
2023-05-13T11:48:49.522Z,50.52
2023-05-13T11:49:49.531Z,49.75
2023-05-13T11:50:49.529Z,48.85
2023-05-13T11:51:49.528Z,51.62
2023-05-13T11:52:49.468Z,49.13
2023-05-13T11:53:49.497Z,49.53
2023-05-13T11:54:49.515Z,51.12
2023-05-13T11:55:49.505Z,52.62
2023-05-13T11:56:49.481Z,53.99
2023-05-13T11:57:49.444Z,51.20
2023-05-13T11:58:49.477Z,50.43
2023-05-13T11:59:49.470Z,49.25
2023-05-13T12:00:49.569Z,49.90
2023-05-13T12:01:49.493Z,49.62
2023-05-13T12:02:49.572Z,51.54
2023-05-13T12:03:49.423Z,51.69
2023-05-13T12:04:49.420Z,50.42
2023-05-13T12:05:49.386Z,49.59
2023-05-13T12:06:49.349Z,52.89
2023-05-13T12:07:49.388Z,51.57
2023-05-13T12:08:49.398Z,50.54
2023-05-13T12:09:49.319Z,53.22
2023-05-13T12:10:49.330Z,48.00
2023-05-13T12:11:49.298Z,49.00
2023-05-13T12:12:49.264Z,53.27
2023-05-13T12:13:49.332Z,51.45
2023-05-13T12:14:49.261Z,47.93
2023-05-13T12:15:49.382Z,51.29
2023-05-13T12:16:49.243Z,47.49
2023-05-13T12:17:49.459Z,47.47
2023-05-13T12:18:49.269Z,49.66
2023-05-13T12:19:49.246Z,49.93
2023-05-13T12:20:49.219Z,48.88
2023-05-13T12:21:49.257Z,46.64
2023-05-13T12:22:49.201Z,45.26
2023-05-13T12:23:49.230Z,47.75
2023-05-13T12:24:49.285Z,46.38
2023-05-13T12:25:49.168Z,48.85
2023-05-13T12:26:49.131Z,50.95
2023-05-13T12:27:49.152Z,48.55
2023-05-13T12:28:49.133Z,47.56
2023-05-13T12:29:49.120Z,50.87
2023-05-13T12:30:49.181Z,50.70
2023-05-13T12:31:49.186Z,49.30
2023-05-13T12:32:49.145Z,51.22
2023-05-13T12:33:49.073Z,49.02
2023-05-13T12:34:49.088Z,53.84
2023-05-13T12:35:49.086Z,48.14
2023-05-13T12:36:49.086Z,46.15
2023-05-13T12:37:49.023Z,46.43
2023-05-13T12:38:49.114Z,52.82
2023-05-13T12:39:48.998Z,46.31
2023-05-13T12:40:49.031Z,53.27
2023-05-13T12:41:48.992Z,48.68
2023-05-13T12:42:48.996Z,48.16
2023-05-13T12:43:48.977Z,48.75
2023-05-13T12:44:48.994Z,48.53
2023-05-13T12:45:49.001Z,46.01
2023-05-13T12:46:49.002Z,46.42
2023-05-13T12:47:49.013Z,43.55
2023-05-13T12:48:48.904Z,44.05
2023-05-13T12:49:48.936Z,44.57
2023-05-13T12:50:48.949Z,48.00
2023-05-13T12:51:48.954Z,50.79
2023-05-13T12:52:48.939Z,49.52